Time;durP1;ratioP1;P1;durP2;ratioP2;P2;SDS_P1;SDS_P2;PMS_P1;PMS_P2;Temp;Humidity;BMP_temperature;BMP_pressure;BME280_temperature;BME280_humidity;BME280_pressure;Samples;Min_cycle;Max_cycle;Signal;HPM_P1;HPM_P2
2022/07/19 00:02:27;;;;;;;5.93;2.30;;;;;;;23.21;37.77;98417.34;8476279;28;20248;-74
2022/07/19 00:06:31;;;;;;;5.70;2.10;;;;;;;23.21;38.24;98412.06;8481071;28;20289;-74
2022/07/19 00:10:36;;;;;;;6.20;2.43;;;;;;;23.15;38.32;98407.31;8480944;28;20235;-74
2022/07/19 00:14:39;;;;;;;6.50;2.10;;;;;;;23.11;38.10;98412.03;8481115;28;20247;-74
2022/07/19 00:18:41;;;;;;;4.03;2.37;;;;;;;23.09;38.42;98406.06;8480937;28;20248;-74
2022/07/19 00:22:44;;;;;;;5.10;1.90;;;;;;;23.00;38.90;98405.06;8480900;28;20432;-74
2022/07/19 00:26:49;;;;;;;5.70;2.10;;;;;;;22.95;38.85;98409.06;8480444;28;20228;-74
2022/07/19 00:30:51;;;;;;;3.80;2.50;;;;;;;22.96;38.88;98408.09;8480653;28;20528;-74
2022/07/19 00:34:55;;;;;;;6.00;2.10;;;;;;;22.91;39.28;98405.03;8480404;28;20231;-73
2022/07/19 00:38:57;;;;;;;5.20;2.03;;;;;;;22.83;39.32;98416.28;8480450;28;20235;-74
2022/07/19 00:43:01;;;;;;;4.43;2.20;;;;;;;22.83;39.44;98414.47;8480524;28;20546;-74
2022/07/19 00:47:05;;;;;;;8.13;2.30;;;;;;;22.81;39.19;98418.22;8480432;28;20243;-74
2022/07/19 00:51:08;;;;;;;8.07;2.40;;;;;;;22.77;39.66;98419.44;8480517;28;20234;-74
2022/07/19 00:55:11;;;;;;;9.00;2.40;;;;;;;22.70;39.69;98424.41;8480505;28;20224;-74
2022/07/19 00:59:15;;;;;;;4.03;2.03;;;;;;;22.62;40.17;98424.25;8480456;28;20225;-74
2022/07/19 01:03:18;;;;;;;5.27;2.00;;;;;;;22.56;40.39;98419.50;8479977;28;20243;-74
2022/07/19 01:07:21;;;;;;;8.03;2.20;;;;;;;22.56;40.23;98422.13;8483490;28;20512;-74
2022/07/19 01:11:24;;;;;;;4.60;2.10;;;;;;;22.49;40.26;98426.28;8486366;28;20236;-74
2022/07/19 01:15:28;;;;;;;4.93;2.20;;;;;;;22.51;40.68;98421.72;8486524;28;20535;-74
2022/07/19 01:19:31;;;;;;;3.60;1.93;;;;;;;22.40;40.81;98423.47;8486349;28;20229;-74
2022/07/19 01:23:36;;;;;;;8.43;2.20;;;;;;;22.40;40.79;98420.00;8485651;28;20266;-74
2022/07/19 01:27:40;;;;;;;4.50;2.03;;;;;;;22.32;40.89;98415.38;8485508;28;20221;-74
2022/07/19 01:31:43;;;;;;;8.00;2.30;;;;;;;22.27;40.91;98417.56;8485404;28;20231;-74
2022/07/19 01:35:46;;;;;;;6.20;2.37;;;;;;;22.22;40.91;98412.66;8485499;28;20403;-74
2022/07/19 01:39:50;;;;;;;6.40;2.57;;;;;;;22.19;41.19;98418.19;8484957;28;20229;-74
2022/07/19 01:43:53;;;;;;;7.03;2.50;;;;;;;22.27;40.60;98411.47;8485264;28;20235;-74
2022/07/19 01:47:56;;;;;;;4.80;2.60;;;;;;;22.27;40.84;98411.47;8485101;28;20239;-74
2022/07/19 01:51:59;;;;;;;5.47;2.53;;;;;;;22.25;40.79;98414.22;8484701;28;20228;-74
2022/07/19 01:56:06;;;;;;;4.43;2.60;;;;;;;22.25;40.83;98416.84;8484552;28;20240;-74
2022/07/19 02:00:10;;;;;;;4.47;3.00;;;;;;;21.95;41.54;98418.47;8484079;28;20226;-74
2022/07/19 02:04:13;;;;;;;8.53;2.93;;;;;;;22.11;41.22;98415.38;8484007;28;20423;-74
2022/07/19 02:08:16;;;;;;;7.43;3.30;;;;;;;22.12;41.15;98406.47;8484372;28;20463;-74
2022/07/19 02:12:20;;;;;;;7.50;3.03;;;;;;;22.15;41.10;98413.31;8484100;28;20403;-74
2022/07/19 02:16:23;;;;;;;6.07;3.20;;;;;;;22.03;41.04;98412.56;8484038;28;20222;-74
2022/07/19 02:20:26;;;;;;;8.00;3.17;;;;;;;22.13;40.82;98413.44;8484189;28;20300;-74
2022/07/19 02:24:29;;;;;;;7.03;3.23;;;;;;;22.09;41.11;98411.19;8483590;28;20426;-74
2022/07/19 02:28:33;;;;;;;8.97;3.10;;;;;;;22.10;41.02;98416.31;8483550;28;20227;-74
2022/07/19 02:32:36;;;;;;;5.33;2.83;;;;;;;22.01;41.65;98415.31;8483436;28;20232;-74
2022/07/19 02:36:39;;;;;;;5.53;2.80;;;;;;;22.04;41.52;98422.94;8483453;28;20420;-74
2022/07/19 02:40:42;;;;;;;6.60;3.40;;;;;;;21.94;41.49;98427.34;8483202;28;20232;-74
2022/07/19 02:44:46;;;;;;;4.83;2.70;;;;;;;21.91;41.97;98422.31;8483127;28;20231;-74
2022/07/19 02:48:49;;;;;;;7.67;2.90;;;;;;;21.88;41.82;98427.03;8482772;28;20255;-74
2022/07/19 02:52:54;;;;;;;4.23;2.80;;;;;;;21.76;42.06;98421.81;8482835;28;20235;-74
2022/07/19 02:56:57;;;;;;;6.40;2.90;;;;;;;21.76;42.53;98432.34;8482721;28;20247;-74
2022/07/19 03:01:02;;;;;;;7.07;2.97;;;;;;;21.79;42.36;98424.19;8482722;28;20536;-74
2022/07/19 03:05:06;;;;;;;7.03;2.80;;;;;;;21.77;42.11;98422.66;8482553;28;20524;-74
2022/07/19 03:09:08;;;;;;;5.33;2.80;;;;;;;21.71;42.34;98421.34;8482506;28;20233;-74
2022/07/19 03:13:11;;;;;;;7.43;2.80;;;;;;;21.70;42.16;98419.66;8482069;28;20242;-74
2022/07/19 03:17:16;;;;;;;4.13;2.70;;;;;;;21.66;42.36;98426.16;8482119;28;20249;-74
2022/07/19 03:21:19;;;;;;;5.93;2.87;;;;;;;21.69;42.24;98422.44;8481889;28;20235;-74
2022/07/19 03:25:21;;;;;;;4.70;2.80;;;;;;;21.56;42.59;98412.91;8481786;28;20232;-74
2022/07/19 03:29:24;;;;;;;5.70;2.70;;;;;;;21.63;42.59;98422.00;8480891;28;20556;-74
2022/07/19 03:33:33;;;;;;;5.27;2.90;;;;;;;21.61;42.52;98423.91;8481547;28;20240;-74
2022/07/19 03:37:35;;;;;;;8.13;3.20;;;;;;;21.53;42.54;98420.22;8481569;28;20419;-74
2022/07/19 03:41:38;;;;;;;6.83;3.03;;;;;;;21.53;42.63;98412.31;8481482;28;20233;-74
2022/07/19 03:45:41;;;;;;;7.43;2.70;;;;;;;21.54;43.05;98422.75;8481301;28;20226;-74
2022/07/19 03:49:46;;;;;;;11.37;3.00;;;;;;;21.53;42.91;98426.31;8481362;28;20534;-75
2022/07/19 03:53:49;;;;;;;6.67;2.97;;;;;;;21.54;42.96;98424.56;8480571;28;20234;-74
2022/07/19 03:57:52;;;;;;;5.13;2.97;;;;;;;21.50;43.14;98434.50;8481059;28;20429;-73
2022/07/19 04:01:54;;;;;;;4.07;2.80;;;;;;;21.44;43.63;98435.00;8480498;28;20547;-74
2022/07/19 04:05:59;;;;;;;3.73;2.80;;;;;;;21.32;44.01;98431.53;8480983;28;20249;-74
2022/07/19 04:10:01;;;;;;;6.07;3.17;;;;;;;21.41;43.60;98441.31;8480705;28;20238;-74
2022/07/19 04:14:04;;;;;;;5.40;2.90;;;;;;;21.37;44.16;98441.69;8477700;28;20232;-74
2022/07/19 04:18:07;;;;;;;7.40;3.20;;;;;;;21.41;43.81;98437.84;8470837;28;20309;-74
2022/07/19 04:22:11;;;;;;;5.90;3.40;;;;;;;21.43;43.96;98441.19;8449927;28;20418;-74
2022/07/19 04:26:14;;;;;;;6.60;3.07;;;;;;;21.50;44.09;98441.56;8446778;28;20224;-74
2022/07/19 04:30:17;;;;;;;7.60;3.10;;;;;;;21.51;43.25;98441.44;8446713;28;20226;-74
2022/07/19 04:34:20;;;;;;;7.70;2.87;;;;;;;21.55;43.19;98440.25;8446637;28;20229;-75
2022/07/19 04:38:26;;;;;;;5.80;3.37;;;;;;;21.61;43.36;98438.88;8476335;28;20236;-74
2022/07/19 04:42:29;;;;;;;3.67;2.87;;;;;;;21.67;43.01;98441.03;8484778;28;20225;-74
2022/07/19 04:46:31;;;;;;;4.43;3.20;;;;;;;21.72;42.24;98445.91;8486484;28;20518;-75
2022/07/19 04:50:34;;;;;;;7.47;3.13;;;;;;;21.78;42.45;98442.75;8485936;28;20221;-75
2022/07/19 04:54:38;;;;;;;6.63;3.13;;;;;;;21.82;41.94;98445.03;8486517;28;20226;-74
2022/07/19 04:58:41;;;;;;;10.30;3.20;;;;;;;21.75;41.88;98443.84;8486369;28;20232;-76
2022/07/19 05:02:44;;;;;;;8.90;3.20;;;;;;;21.81;41.84;98437.22;8486119;28;20229;-78
2022/07/19 05:06:47;;;;;;;8.07;3.37;;;;;;;22.17;41.66;98445.66;8486455;28;20227;-77
2022/07/19 05:10:51;;;;;;;9.17;2.90;;;;;;;22.34;41.09;98445.09;8484853;28;20297;-79
2022/07/19 05:14:54;;;;;;;3.60;3.07;;;;;;;22.27;41.28;98448.38;8485468;28;20246;-78
2022/07/19 05:18:57;;;;;;;6.67;3.00;;;;;;;22.47;40.67;98451.97;8486093;28;20235;-78
2022/07/19 05:22:59;;;;;;;8.60;3.10;;;;;;;21.84;41.87;98442.25;8485882;28;20530;-78
2022/07/19 05:27:04;;;;;;;5.73;3.20;;;;;;;22.39;40.85;98445.53;8485784;28;20424;-79
2022/07/19 05:31:06;;;;;;;12.50;3.30;;;;;;;22.48;40.70;98454.47;8485427;28;20231;-79
2022/07/19 05:35:09;;;;;;;12.00;3.53;;;;;;;22.60;40.77;98455.22;8485550;28;20225;-79
2022/07/19 05:39:12;;;;;;;14.13;3.47;;;;;;;22.36;40.66;98443.16;8485458;28;20290;-83
2022/07/19 05:43:17;;;;;;;6.67;2.83;;;;;;;22.35;41.17;98448.56;8485585;28;20549;-81
2022/07/19 05:47:20;;;;;;;7.03;3.90;;;;;;;22.51;41.35;98450.75;8485119;28;20415;-81
2022/07/19 05:51:22;;;;;;;9.43;3.97;;;;;;;22.56;40.85;98453.81;8484790;28;20535;-81
2022/07/19 05:55:25;;;;;;;7.83;3.43;;;;;;;22.50;41.22;98444.59;8484982;28;20233;-83
2022/07/19 05:59:29;;;;;;;7.30;3.07;;;;;;;22.54;41.04;98447.81;8484879;28;20236;-80
2022/07/19 06:03:32;;;;;;;6.00;3.43;;;;;;;22.67;40.42;98437.06;8484111;28;20236;-74
2022/07/19 06:07:35;;;;;;;12.67;3.47;;;;;;;22.82;40.23;98441.81;8484587;28;20512;-76
2022/07/19 06:11:39;;;;;;;7.40;3.13;;;;;;;23.32;39.92;98441.00;8484368;28;20226;-75
2022/07/19 06:15:43;;;;;;;9.77;3.03;;;;;;;23.62;39.61;98440.03;8484178;28;20548;-75
2022/07/19 06:19:47;;;;;;;13.13;3.03;;;;;;;23.62;38.73;98437.38;8483797;28;20237;-75
2022/07/19 06:23:50;;;;;;;9.93;2.83;;;;;;;23.84;39.05;98440.78;8474683;28;20244;-75
2022/07/19 06:27:53;;;;;;;8.23;3.13;;;;;;;23.88;39.40;98439.50;8449819;28;20240;-75
2022/07/19 06:31:57;;;;;;;8.10;3.20;;;;;;;23.87;38.11;98439.63;8450013;28;20237;-75
2022/07/19 06:35:59;;;;;;;11.20;3.00;;;;;;;23.85;37.82;98431.84;8449788;28;20436;-76
2022/07/19 06:40:03;;;;;;;7.80;2.80;;;;;;;24.12;37.90;98431.13;8449558;28;20238;-75
2022/07/19 06:44:05;;;;;;;9.13;2.90;;;;;;;24.31;37.66;98432.88;8423262;28;20233;-74
2022/07/19 06:48:10;;;;;;;10.73;2.90;;;;;;;24.82;37.81;98436.03;8416106;28;20538;-75
2022/07/19 06:52:12;;;;;;;4.37;2.43;;;;;;;24.82;35.70;98435.22;8415532;28;20223;-74
2022/07/19 06:56:16;;;;;;;6.53;2.43;;;;;;;24.83;35.73;98432.44;8415302;28;20296;-75
2022/07/19 07:00:19;;;;;;;4.70;2.27;;;;;;;25.27;34.67;98423.84;8415280;28;20234;-75
2022/07/19 07:04:23;;;;;;;3.90;2.50;;;;;;;25.65;34.02;98425.34;8444529;28;20235;-75
2022/07/19 07:08:40;;;;;;;7.03;2.40;;;;;;;25.70;33.52;98427.53;8448742;28;20230;-74
2022/07/19 07:12:43;;;;;;;7.53;2.47;;;;;;;25.72;33.40;98428.19;8448498;28;20217;-75
2022/07/19 07:16:46;;;;;;;5.13;2.43;;;;;;;25.74;32.46;98418.25;8448624;28;20430;-74
2022/07/19 07:20:50;;;;;;;5.60;2.47;;;;;;;26.06;32.61;98419.53;8447761;28;20224;-75
2022/07/19 07:24:53;;;;;;;9.37;2.30;;;;;;;26.55;32.56;98425.13;8447279;28;20547;-74
2022/07/19 07:28:56;;;;;;;4.70;2.07;;;;;;;26.81;31.87;98419.81;8447424;28;20241;-75
2022/07/19 07:32:59;;;;;;;9.53;2.87;;;;;;;26.66;31.69;98408.94;8444626;28;20401;-75
2022/07/19 07:37:03;;;;;;;5.43;2.20;;;;;;;27.30;31.14;98401.38;8447310;28;20222;-75
2022/07/19 07:41:06;;;;;;;7.77;2.33;;;;;;;27.47;30.28;98402.22;8447260;28;20226;-75
2022/07/19 07:45:29;;;;;;;10.57;2.27;;;;;;;27.76;29.26;98406.19;8445726;28;20223;-75
2022/07/19 07:49:32;;;;;;;7.83;2.47;;;;;;;28.24;28.92;98406.34;8447177;28;20288;-75
2022/07/19 07:53:36;;;;;;;6.93;2.50;;;;;;;28.12;28.50;98403.19;8446336;28;20230;-76
2022/07/19 07:57:39;;;;;;;4.73;2.23;;;;;;;28.70;28.04;98401.22;8446480;28;20217;-76
2022/07/19 08:01:43;;;;;;;3.90;2.03;;;;;;;29.09;28.30;98399.50;8446945;28;20264;-76
2022/07/19 08:05:47;;;;;;;5.17;2.47;;;;;;;28.94;27.17;98400.25;8447168;28;20312;-76
2022/07/19 08:09:51;;;;;;;6.80;2.23;;;;;;;28.81;26.85;98397.34;8446533;28;20545;-75
2022/07/19 08:13:54;;;;;;;5.23;2.20;;;;;;;29.58;26.98;98393.84;8446765;28;20227;-75
2022/07/19 08:17:57;;;;;;;6.30;2.33;;;;;;;30.00;26.58;98389.84;8446561;28;20293;-75
2022/07/19 08:22:00;;;;;;;5.10;2.50;;;;;;;30.09;25.57;98390.59;8446997;28;20232;-75
2022/07/19 08:26:04;;;;;;;4.97;2.20;;;;;;;30.04;25.54;98395.66;8447195;28;20237;-75
2022/07/19 08:30:08;;;;;;;5.87;1.90;;;;;;;30.64;26.13;98396.53;8446726;28;20242;-76
2022/07/19 08:34:11;;;;;;;5.43;2.37;;;;;;;30.84;25.23;98383.38;8446653;28;20235;-76
2022/07/19 08:38:14;;;;;;;7.23;2.20;;;;;;;31.02;24.60;98383.84;8446727;28;20229;-75
2022/07/19 08:42:20;;;;;;;11.37;2.47;;;;;;;30.58;24.31;98374.88;8446464;28;20229;-76
2022/07/19 08:46:24;;;;;;;8.00;2.13;;;;;;;30.93;24.10;98376.94;8446668;28;20233;-76
2022/07/19 08:50:27;;;;;;;8.00;2.40;;;;;;;31.03;23.60;98382.00;8446233;28;20367;-76
2022/07/19 08:54:30;;;;;;;5.97;1.97;;;;;;;31.04;23.02;98380.97;8446442;28;20237;-76
2022/07/19 08:58:39;;;;;;;7.50;2.10;;;;;;;30.82;23.57;98375.56;8446444;28;20233;-76
2022/07/19 09:02:52;;;;;;;5.07;2.03;;;;;;;31.40;23.58;98367.56;8446107;28;20238;-76
2022/07/19 09:06:56;;;;;;;6.30;2.40;;;;;;;31.59;22.96;98373.28;8445782;28;20226;-76
2022/07/19 09:11:17;;;;;;;12.97;2.40;;;;;;;31.74;22.05;98376.72;8446030;28;20235;-76
2022/07/19 09:15:22;;;;;;;3.83;2.13;;;;;;;31.44;22.39;98373.34;8445972;28;20237;-76
2022/07/19 09:19:26;;;;;;;7.10;2.40;;;;;;;31.98;22.05;98370.09;8445999;28;20233;-76
2022/07/19 09:23:29;;;;;;;6.57;2.00;;;;;;;32.15;20.87;98362.59;8446127;28;20223;-76
2022/07/19 09:27:32;;;;;;;3.70;1.80;;;;;;;32.83;21.40;98361.94;8447006;28;20545;-76
2022/07/19 09:31:36;;;;;;;4.40;1.90;;;;;;;32.46;20.96;98364.00;8447413;28;20233;-76
2022/07/19 09:35:43;;;;;;;9.07;1.80;;;;;;;32.75;20.71;98354.91;8446905;28;20425;-77
2022/07/19 09:39:56;;;;;;;4.17;1.70;;;;;;;32.95;20.78;98354.94;8453745;28;20234;-75
2022/07/19 09:44:05;;;;;;;6.43;1.93;;;;;;;33.06;19.48;98361.56;8451122;28;20237;-77
2022/07/19 09:48:12;;;;;;;5.70;1.90;;;;;;;33.23;19.10;98356.69;8438968;28;20232;-76
2022/07/19 09:52:20;;;;;;;11.00;1.87;;;;;;;33.69;18.74;98362.09;8418165;28;20561;-76
2022/07/19 09:56:23;;;;;;;5.43;1.80;;;;;;;33.68;19.14;98356.91;8458360;28;20233;-74
2022/07/19 10:00:26;;;;;;;4.07;1.70;;;;;;;33.98;18.89;98359.19;8458764;28;20221;-76
2022/07/19 10:04:33;;;;;;;5.90;1.83;;;;;;;33.70;18.61;98349.50;8450337;28;20241;-76
2022/07/19 10:08:36;;;;;;;4.93;1.93;;;;;;;34.01;18.46;98350.72;8450425;28;20224;-72
2022/07/19 10:12:39;;;;;;;6.33;1.93;;;;;;;34.31;18.03;98343.00;8450462;28;20236;-76
2022/07/19 10:16:52;;;;;;;4.67;1.80;;;;;;;34.38;17.19;98342.97;8450010;28;20230;-76
2022/07/19 10:21:03;;;;;;;5.37;1.87;;;;;;;34.13;17.53;98340.94;8449370;28;20284;-75
2022/07/19 10:25:13;;;;;;;4.17;1.80;;;;;;;34.59;17.43;98331.09;8448112;28;20231;-76
2022/07/19 10:29:17;;;;;;;3.67;1.88;;;;;;;34.70;17.26;98318.88;8447710;28;20228;-75
2022/07/19 10:33:32;;;;;;;7.05;1.90;;;;;;;34.45;17.64;98322.28;8447953;28;20227;-75
2022/07/19 10:37:43;;;;;;;3.83;1.73;;;;;;;34.40;16.78;98325.59;8447677;28;20228;-75
2022/07/19 10:42:04;;;;;;;5.93;1.77;;;;;;;34.96;16.81;98313.34;8449277;28;20533;-75
2022/07/19 10:46:12;;;;;;;4.35;1.88;;;;;;;35.28;17.14;98308.00;8449205;28;20250;-75
2022/07/19 10:50:18;;;;;;;11.30;2.38;;;;;;;35.07;16.32;98302.91;8449281;28;20236;-75
2022/07/19 10:54:22;;;;;;;6.18;2.20;;;;;;;34.66;16.42;98313.06;8448945;28;20260;-76
2022/07/19 10:58:25;;;;;;;4.50;1.70;;;;;;;35.39;16.57;98301.88;8448962;28;20229;-75
2022/07/19 11:02:28;;;;;;;7.85;2.08;;;;;;;35.62;16.88;98301.28;8448643;28;20238;-75
2022/07/19 11:06:47;;;;;;;5.63;2.28;;;;;;;35.40;15.87;98290.06;8448323;28;20253;-74
2022/07/19 11:10:52;;;;;;;7.20;1.70;;;;;;;35.97;16.22;98287.25;8448667;28;20232;-75
2022/07/19 11:14:55;;;;;;;4.45;2.00;;;;;;;35.62;15.73;98284.25;8448807;28;20235;-74
2022/07/19 11:19:17;;;;;;;5.30;1.80;;;;;;;35.49;15.58;98271.78;8448322;28;20227;-75
2022/07/19 11:23:21;;;;;;;3.28;1.67;;;;;;;35.67;15.91;98270.97;8448435;28;20225;-75
2022/07/19 11:27:25;;;;;;;6.93;1.83;;;;;;;34.97;16.32;98281.88;8448266;28;20233;-75
2022/07/19 11:31:28;;;;;;;2.92;1.77;;;;;;;35.75;16.09;98270.69;8448121;28;20230;-75
2022/07/19 11:35:31;;;;;;;3.30;1.70;;;;;;;35.83;15.33;98264.19;8447717;28;20230;-75
2022/07/19 11:39:46;;;;;;;7.22;1.98;;;;;;;35.90;15.02;98258.75;8447592;28;20232;-75
2022/07/19 11:43:54;;;;;;;7.15;2.00;;;;;;;35.84;15.03;98265.03;8447269;28;20227;-74
2022/07/19 11:47:58;;;;;;;3.75;1.70;;;;;;;36.10;15.14;98250.41;8447623;28;20234;-74
2022/07/19 11:52:00;;;;;;;5.63;1.60;;;;;;;35.59;15.70;98247.84;8446733;28;20234;-75
2022/07/19 11:56:04;;;;;;;5.22;1.90;;;;;;;35.63;15.23;98245.53;8446920;28;20236;-75
2022/07/19 12:00:10;;;;;;;5.45;2.00;;;;;;;35.93;15.13;98247.50;8446924;28;20245;-76
2022/07/19 12:04:15;;;;;;;9.13;1.90;;;;;;;36.17;15.47;98241.22;8446791;28;20529;-75
2022/07/19 12:08:18;;;;;;;6.15;2.30;;;;;;;35.77;14.85;98248.94;8446798;28;20576;-76
2022/07/19 12:12:21;;;;;;;4.63;1.92;;;;;;;35.96;15.30;98234.41;8446680;28;20229;-75
2022/07/19 12:16:25;;;;;;;3.95;1.90;;;;;;;35.74;15.36;98228.66;8446381;28;20234;-75
2022/07/19 12:20:28;;;;;;;4.60;1.88;;;;;;;35.85;14.70;98226.25;8446438;28;20249;-75
2022/07/19 12:24:50;;;;;;;5.82;1.90;;;;;;;36.49;15.25;98218.63;8445901;28;20420;-74
2022/07/19 12:29:00;;;;;;;4.30;1.85;;;;;;;36.54;14.85;98211.50;8446487;28;20295;-74
2022/07/19 12:33:10;;;;;;;6.63;2.10;;;;;;;36.25;14.96;98218.53;8446648;28;20237;-75
2022/07/19 12:37:23;;;;;;;3.90;2.03;;;;;;;36.26;15.01;98205.88;8446509;28;20386;-74
2022/07/19 12:41:26;;;;;;;4.93;2.22;;;;;;;35.83;15.00;98213.00;8446137;28;20431;-75
2022/07/19 12:45:30;;;;;;;5.35;2.35;;;;;;;36.12;15.95;98202.50;8446299;28;20230;-75
2022/07/19 12:49:45;;;;;;;7.32;2.40;;;;;;;36.06;14.67;98203.41;8446089;28;20552;-74
2022/07/19 12:53:48;;;;;;;6.22;2.28;;;;;;;36.51;15.02;98203.03;8445655;28;20224;-73
2022/07/19 12:57:52;;;;;;;3.30;2.00;;;;;;;36.03;14.37;98203.88;8444909;28;20234;-74
2022/07/19 13:01:55;;;;;;;4.70;2.10;;;;;;;36.20;14.81;98200.34;8446330;28;20230;-74
2022/07/19 13:06:00;;;;;;;4.00;2.42;;;;;;;36.31;14.94;98189.81;8451934;28;20248;-75
2022/07/19 13:10:03;;;;;;;5.13;2.33;;;;;;;36.42;14.63;98177.44;8452067;28;20236;-75
2022/07/19 13:14:06;;;;;;;6.18;2.30;;;;;;;35.93;14.66;98182.84;8451953;28;20235;-75
2022/07/19 13:18:09;;;;;;;6.85;2.42;;;;;;;36.07;14.92;98178.13;8452039;28;20225;-76
2022/07/19 13:22:14;;;;;;;4.82;2.38;;;;;;;35.86;14.95;98166.75;8451862;28;20230;-76
2022/07/19 13:26:17;;;;;;;5.07;2.10;;;;;;;35.53;15.07;98172.50;8451749;28;20225;-75
2022/07/19 13:30:20;;;;;;;6.13;2.30;;;;;;;36.06;14.97;98168.38;8451050;28;20241;-76
2022/07/19 13:34:24;;;;;;;8.85;2.63;;;;;;;35.87;14.65;98156.81;8451351;28;20264;-76
2022/07/19 13:38:28;;;;;;;7.60;2.75;;;;;;;36.09;15.27;98151.75;8451166;28;20226;-76
2022/07/19 13:42:30;;;;;;;10.25;2.38;;;;;;;36.13;14.01;98150.25;8451100;28;20226;-77
2022/07/19 13:46:33;;;;;;;5.88;2.20;;;;;;;35.98;14.60;98147.94;8451199;28;20233;-77
2022/07/19 13:50:37;;;;;;;6.82;1.98;;;;;;;36.34;15.54;98146.25;8451470;28;20230;-76
2022/07/19 13:54:41;;;;;;;8.55;2.40;;;;;;;36.45;14.89;98150.84;8451188;28;20225;-76
2022/07/19 13:58:44;;;;;;;7.93;2.50;;;;;;;36.34;14.57;98138.97;8450790;28;20238;-76
2022/07/19 14:02:48;;;;;;;6.63;2.40;;;;;;;36.09;14.73;98132.91;8450228;28;20245;-74
2022/07/19 14:06:52;;;;;;;4.75;2.30;;;;;;;36.24;15.29;98127.13;8450838;28;20352;-75
2022/07/19 14:10:56;;;;;;;3.70;2.10;;;;;;;36.01;14.77;98116.00;8450797;28;20421;-75
2022/07/19 14:14:59;;;;;;;4.68;2.40;;;;;;;36.16;14.42;98120.97;8450095;28;20233;-75
2022/07/19 14:19:05;;;;;;;3.00;2.30;;;;;;;36.19;14.71;98111.63;8450523;28;20240;-76
2022/07/19 14:23:08;;;;;;;4.43;2.35;;;;;;;36.22;14.98;98115.75;8450201;28;20237;-76
2022/07/19 14:27:13;;;;;;;5.47;2.47;;;;;;;36.14;14.39;98101.50;8450171;28;20236;-76
2022/07/19 14:31:16;;;;;;;4.35;2.20;;;;;;;35.86;14.92;98099.41;8450270;28;20233;-76
2022/07/19 14:35:20;;;;;;;8.27;2.60;;;;;;;35.85;14.81;98095.06;8450146;28;20225;-76
2022/07/19 14:39:23;;;;;;;8.40;2.60;;;;;;;35.48;14.62;98096.97;8449802;28;20225;-76
2022/07/19 14:43:27;;;;;;;9.40;2.50;;;;;;;35.69;15.37;98090.31;8449949;28;20529;-75
2022/07/19 14:47:30;;;;;;;4.22;2.40;;;;;;;35.96;14.86;98091.59;8448790;28;20218;-75
2022/07/19 14:51:33;;;;;;;5.93;2.25;;;;;;;35.81;14.80;98086.63;8448851;28;20218;-76
2022/07/19 14:55:36;;;;;;;3.83;2.15;;;;;;;35.78;15.27;98097.84;8447996;28;20218;-76
2022/07/19 14:59:40;;;;;;;8.52;2.83;;;;;;;35.79;14.97;98080.63;8448008;28;20548;-76
2022/07/19 15:03:51;;;;;;;5.43;2.38;;;;;;;35.51;14.46;98077.66;8448005;28;20221;-75
2022/07/19 15:07:54;;;;;;;7.10;2.60;;;;;;;35.54;14.46;98074.53;8448280;28;20426;-77
2022/07/19 15:11:59;;;;;;;7.32;2.30;;;;;;;35.37;14.97;98066.25;8447796;28;20222;-76
2022/07/19 15:16:04;;;;;;;5.60;2.28;;;;;;;35.50;14.86;98067.97;8448284;28;20244;-75
2022/07/19 15:20:08;;;;;;;5.80;2.47;;;;;;;35.53;14.42;98054.88;8448410;28;20404;-75
2022/07/19 15:24:11;;;;;;;4.72;2.58;;;;;;;35.66;14.72;98061.09;8447689;28;20539;-76
2022/07/19 15:28:14;;;;;;;14.93;2.72;;;;;;;35.33;14.25;98056.97;8447554;28;20226;-76
2022/07/19 15:32:18;;;;;;;6.28;2.40;;;;;;;35.15;14.81;98063.97;8448062;28;20226;-75
2022/07/19 15:36:21;;;;;;;6.15;2.60;;;;;;;35.13;14.73;98066.06;8447590;28;20237;-76
2022/07/19 15:40:24;;;;;;;5.45;2.83;;;;;;;35.22;15.11;98058.53;8447745;28;20253;-77
2022/07/19 15:44:27;;;;;;;5.85;2.60;;;;;;;35.23;14.80;98057.50;8447753;28;20415;-75
2022/07/19 15:48:31;;;;;;;3.97;2.20;;;;;;;35.00;14.74;98050.06;8447414;28;20237;-75
2022/07/19 15:52:34;;;;;;;8.18;3.33;;;;;;;35.03;15.15;98045.06;8447305;28;20237;-76
2022/07/19 15:56:42;;;;;;;5.97;2.30;;;;;;;34.94;15.19;98037.50;8447051;28;20240;-75
2022/07/19 16:00:45;;;;;;;7.43;2.60;;;;;;;35.04;15.48;98035.94;8447212;28;20233;-76
2022/07/19 16:04:49;;;;;;;6.95;2.60;;;;;;;34.95;15.38;98029.19;8414285;28;20383;-75
2022/07/19 16:08:52;;;;;;;8.88;2.58;;;;;;;34.88;15.31;98024.94;8444936;28;20342;-75
2022/07/19 16:12:55;;;;;;;7.45;2.70;;;;;;;34.62;15.49;98029.53;8446850;28;20248;-75
2022/07/19 16:16:57;;;;;;;9.43;2.60;;;;;;;34.64;15.57;98016.69;8444944;28;20557;-76
2022/07/19 16:21:05;;;;;;;5.67;2.47;;;;;;;34.72;15.98;98008.34;8419729;28;20513;-77
2022/07/19 16:25:11;;;;;;;5.90;2.40;;;;;;;34.68;16.44;98012.53;8442897;28;20236;-76
2022/07/19 16:29:14;;;;;;;7.57;2.50;;;;;;;34.64;15.88;98009.44;8446596;28;20232;-75
2022/07/19 16:33:16;;;;;;;5.53;2.10;;;;;;;34.64;16.00;98003.22;8446254;28;20223;-75
2022/07/19 16:37:21;;;;;;;7.78;2.70;;;;;;;34.46;16.27;98004.84;8449894;28;20237;-75
2022/07/19 16:41:24;;;;;;;6.32;2.63;;;;;;;34.44;16.12;98006.09;8453401;28;20233;-77
2022/07/19 16:45:27;;;;;;;5.13;2.40;;;;;;;34.26;15.91;98004.19;8453093;28;20229;-76
2022/07/19 16:49:35;;;;;;;5.70;2.30;;;;;;;34.30;16.30;98002.72;8452760;28;20229;-76
2022/07/19 16:53:39;;;;;;;5.80;2.40;;;;;;;34.13;16.44;97991.66;8452943;28;20226;-76
2022/07/19 16:57:42;;;;;;;5.63;2.17;;;;;;;34.10;16.31;98002.84;8452933;28;20232;-76
2022/07/19 17:01:45;;;;;;;7.43;2.60;;;;;;;33.97;16.46;98000.28;8452587;28;20233;-78
2022/07/19 17:05:48;;;;;;;6.20;2.50;;;;;;;33.91;16.60;97999.28;8452164;28;20247;-75
2022/07/19 17:09:53;;;;;;;6.53;2.97;;;;;;;33.77;16.42;97993.16;8452648;28;20251;-76
2022/07/19 17:14:16;;;;;;;8.13;2.90;;;;;;;33.66;16.85;97988.47;8452294;28;20516;-76
2022/07/19 17:18:19;;;;;;;6.03;2.27;;;;;;;33.63;16.83;97992.41;8452273;28;20234;-76
2022/07/19 17:22:22;;;;;;;5.27;2.43;;;;;;;33.59;17.06;97987.69;8451935;28;20248;-75
2022/07/19 17:26:27;;;;;;;5.47;2.70;;;;;;;33.55;16.90;97995.34;8452144;28;20226;-74
2022/07/19 17:30:30;;;;;;;6.30;2.57;;;;;;;33.39;17.02;97983.22;8452026;28;20241;-78
2022/07/19 17:34:33;;;;;;;9.40;3.10;;;;;;;33.36;16.98;97985.50;8452286;28;20414;-75
2022/07/19 17:38:35;;;;;;;5.77;2.50;;;;;;;33.34;17.47;97991.09;8451524;28;20232;-76
2022/07/19 17:42:40;;;;;;;4.90;2.50;;;;;;;33.22;17.56;97990.13;8451263;28;20229;-73
2022/07/19 17:46:43;;;;;;;7.70;2.63;;;;;;;33.23;17.88;97983.72;8450957;28;20234;-74
2022/07/19 17:50:46;;;;;;;6.63;2.30;;;;;;;33.18;17.51;97980.84;8450143;28;20529;-75
2022/07/19 17:54:49;;;;;;;3.90;2.80;;;;;;;33.14;17.82;97993.88;8450232;28;20233;-74
2022/07/19 17:58:53;;;;;;;7.57;2.87;;;;;;;33.04;17.81;97991.59;8450603;28;20254;-75
2022/07/19 18:02:57;;;;;;;6.40;2.47;;;;;;;33.01;18.45;97993.88;8450832;28;20422;-73
2022/07/19 18:07:00;;;;;;;9.63;3.00;;;;;;;32.94;18.64;97991.22;8450716;28;20232;-74
2022/07/19 18:11:03;;;;;;;11.50;2.80;;;;;;;32.83;18.87;97992.69;8450779;28;20232;-75
2022/07/19 18:15:08;;;;;;;11.60;2.93;;;;;;;32.73;19.00;97987.78;8450854;28;20232;-74
2022/07/19 18:19:12;;;;;;;13.17;3.57;;;;;;;32.67;18.92;97993.97;8450399;28;20230;-73
2022/07/19 18:23:15;;;;;;;6.70;2.77;;;;;;;32.67;19.34;97985.94;8450643;28;20226;-74
2022/07/19 18:27:18;;;;;;;11.50;3.13;;;;;;;32.59;19.41;97978.09;8420976;28;20229;-74
2022/07/19 18:31:22;;;;;;;19.23;3.57;;;;;;;32.48;19.21;97981.38;8416312;28;20224;-74
2022/07/19 18:35:25;;;;;;;10.00;3.07;;;;;;;32.47;19.48;97982.44;8416505;28;20233;-74
2022/07/19 18:39:28;;;;;;;9.53;3.00;;;;;;;32.33;19.85;97993.16;8416408;28;20239;-74
2022/07/19 18:43:31;;;;;;;6.80;2.80;;;;;;;32.26;19.93;97986.16;8416085;28;20236;-75
2022/07/19 18:47:35;;;;;;;11.87;3.20;;;;;;;32.15;19.96;97985.72;8416016;28;20241;-75
2022/07/19 18:51:38;;;;;;;11.03;3.40;;;;;;;32.02;20.49;97987.59;8416011;28;20236;-76
2022/07/19 18:55:41;;;;;;;19.53;3.47;;;;;;;31.88;20.38;97992.09;8415844;28;20241;-75
2022/07/19 18:59:44;;;;;;;16.70;3.67;;;;;;;31.78;20.31;97989.81;8415606;28;20537;-75
2022/07/19 19:03:48;;;;;;;10.30;2.80;;;;;;;31.73;20.88;97984.22;8457264;28;20405;-72
2022/07/19 19:07:52;;;;;;;12.87;3.20;;;;;;;31.60;21.34;97989.56;8448917;28;20237;-73